Flight Track Log - Related Links

Times and Time Zones

All times are in EDT time to prevent confusion due to time zone crossing. See the SWA2624 flight status page for this flight to view local times or setup timezone preferences in your user account.

Time Position Orientation Groundspeed Altitude Reporting Facility
EDT Latitude Longitude Course Direction KTS MPH feet Rate Location/Type
Wed 07:16:50 PM 39.1333 -76.6667 252° West 205 236 2,800  Level Potomac TRACON
Wed 07:17:56 PM 39.1333 -76.7500 270° West 254 292 5,800 3,300 Climbing Potomac TRACON
Wed 07:18:50 PM 39.1667 -76.8333 297° West 291 335 9,400 3,900 Climbing Potomac TRACON
Wed 07:19:56 PM 39.2167 -76.9333 303° West 307 353 13,600 3,150 Climbing Potomac TRACON
Wed 07:20:50 PM 39.2167 -77.0333 270° West 347 399 15,700 2,605 Climbing Potomac TRACON
Wed 07:22:00 PM 38.9908 -77.3536 252° West  Level FlightAware Approximate
Wed 07:22:28 PM 39.1358 -77.2186 241° Southwest 368 423 20,200  Level Washington Center
Wed 07:23:28 PM 39.0614 -77.3267 228° Southwest 382 440 22,800 2,246 Climbing Washington Center
Wed 07:25:27 PM 39.0278 -77.6144 262° West 425 489 26,900 1,500 Climbing Washington Center
Wed 07:26:28 PM 39.0164 -77.7850 265° West 444 511 27,300 1,169 Climbing Washington Center
Wed 07:27:25 PM 39.0028 -77.9475 264° West 444 511 29,200 1,983 Climbing Washington Center
Wed 07:28:26 PM 38.9914 -78.1075 265° West 449 517 31,200 1,377 Climbing Washington Center
Wed 07:29:27 PM 38.9775 -78.2697 264° West 460 529 32,000 393 Climbing Washington Center
Wed 07:30:28 PM 38.9653 -78.4322 265° West 460 529 32,000  Level Washington Center
Wed 07:31:26 PM 38.9531 -78.5919 264° West 460 529 32,000  Level Washington Center
Wed 07:32:26 PM 38.9406 -78.7542 264° West 460 529 32,000  Level Washington Center
Wed 07:33:28 PM 38.9258 -78.9164 263° West 460 529 32,000  Level Washington Center
Wed 07:34:26 PM 38.9150 -79.0786 265° West 460 529 32,000 153 Level Washington Center
Wed 07:35:26 PM 38.9022 -79.2275 264° West 473 544 32,300 1,190 Climbing Washington Center
Wed 07:36:27 PM 38.8842 -79.4053 263° West 473 544 34,400 2,262 Climbing Washington Center
Wed 07:37:28 PM 38.8753 -79.5514 266° West 461 531 36,900 2,678 Climbing Washington Center
Wed 07:38:28 PM 38.8614 -79.7161 264° West 450 518 39,800 1,563 Climbing Washington Center
Wed 07:39:27 PM 38.8489 -79.8406 263° West 415 478 40,000 58 Climbing Washington Center
Wed 07:41:54 PM 38.8172 -80.1703 263° West 398 458 40,000  Level Indianapolis Center
Wed 07:42:56 PM 38.8128 -80.3392 268° West 395 455 40,000  Level Indianapolis Center
Wed 07:43:58 PM 38.8097 -80.4792 268° West 393 452 40,000  Level Indianapolis Center
Wed 07:44:59 PM 38.8056 -80.6186 268° West 391 450 40,000  Level Indianapolis Center
Wed 07:46:01 PM 38.8019 -80.7578 268° West 392 451 40,000  Level Indianapolis Center
Wed 07:47:03 PM 38.7975 -80.8956 268° West 388 447 40,000  Level Indianapolis Center
Wed 07:48:04 PM 38.7928 -81.0344 268° West 391 450 40,000  Level Indianapolis Center
Wed 07:49:06 PM 38.7875 -81.1719 267° West 387 445 40,000  Level Indianapolis Center
Wed 07:50:08 PM 38.7831 -81.3092 268° West 388 447 40,000  Level Indianapolis Center
Wed 07:51:09 PM 38.7769 -81.4664 267° West 385 443 40,000  Level Indianapolis Center
Wed 07:52:11 PM 38.7719 -81.6044 267° West 387 445 40,000  Level Indianapolis Center
Wed 07:53:13 PM 38.7675 -81.7419 268° West 389 448 40,000  Level Indianapolis Center
Wed 07:54:14 PM 38.7614 -81.8764 267° West 384 442 40,000  Level Indianapolis Center
Wed 07:55:16 PM 38.7550 -82.0125 267° West 384 442 40,000  Level Indianapolis Center
Wed 07:56:18 PM 38.7489 -82.1786 267° West 390 449 40,000  Level Indianapolis Center
Wed 07:57:19 PM 38.7436 -82.3164 267° West 388 447 40,000  Level Indianapolis Center
Wed 07:58:21 PM 38.7381 -82.4553 267° West 391 450 40,000  Level Indianapolis Center
Wed 07:59:22 PM 38.7317 -82.5950 267° West 392 451 40,000  Level Indianapolis Center
Wed 08:00:24 PM 38.7264 -82.7331 267° West 391 450 40,000  Level Indianapolis Center
Wed 08:01:26 PM 38.7200 -82.8739 267° West 394 453 40,000  Level Indianapolis Center
Wed 08:02:27 PM 38.7147 -83.0128 267° West 392 451 40,000  Level Indianapolis Center
Wed 08:03:29 PM 38.7075 -83.1747 267° West 394 453 40,000  Level Indianapolis Center
Wed 08:04:30 PM 38.7008 -83.3078 266° West 393 452 40,000  Level Indianapolis Center
Wed 08:05:32 PM 38.6944 -83.4517 267° West 399 459 40,000  Level Indianapolis Center
Wed 08:06:34 PM 38.6875 -83.5947 266° West 400 460 40,000  Level Indianapolis Center
Wed 08:07:35 PM 38.6800 -83.7372 266° West 398 458 40,000  Level Indianapolis Center
Wed 08:08:37 PM 38.6722 -83.8794 266° West 397 457 40,000  Level Indianapolis Center
Wed 08:09:38 PM 38.6631 -84.0469 266° West 400 460 40,000  Level Indianapolis Center
Wed 08:10:40 PM 38.6553 -84.1917 266° West 402 463 40,000  Level Indianapolis Center
Wed 08:11:41 PM 38.6503 -84.3356 267° West 401 461 40,000  Level Indianapolis Center
Wed 08:12:43 PM 38.6592 -84.4831 274° West 410 472 40,000  Level Indianapolis Center
Wed 08:13:45 PM 38.6547 -84.6344 268° West 409 471 40,000  Level Indianapolis Center
Wed 08:14:46 PM 38.6503 -84.7806 268° West 409 471 40,000  Level Indianapolis Center
Wed 08:15:48 PM 38.6475 -84.9258 269° West 406 467 40,000  Level Indianapolis Center
Wed 08:16:49 PM 38.6422 -85.0722 267° West 408 470 40,000  Level Indianapolis Center
Wed 08:17:51 PM 38.6381 -85.2178 268° West 407 468 40,000  Level Indianapolis Center
Wed 08:18:52 PM 38.6319 -85.3608 267° West 406 467 40,000  Level Indianapolis Center
Wed 08:19:54 PM 38.6261 -85.5064 267° West 408 470 40,000  Level Indianapolis Center
Wed 08:20:55 PM 38.6228 -85.6525 268° West 411 473 40,000  Level Indianapolis Center
Wed 08:21:57 PM 38.6175 -85.7989 267° West 410 472 40,000  Level Indianapolis Center
Wed 08:22:58 PM 38.6103 -85.9753 267° West 411 473 40,000  Level Indianapolis Center
Wed 08:25:01 PM 38.5969 -86.2681 267° West 412 474 40,000  Level Indianapolis Center
Wed 08:26:03 PM 38.5917 -86.4150 267° West 414 476 40,000  Level Indianapolis Center
Wed 08:27:04 PM 38.5858 -86.5625 267° West 416 479 40,000  Level Indianapolis Center
Wed 08:28:06 PM 38.5792 -86.7078 267° West 411 473 40,000  Level Indianapolis Center
Wed 08:29:07 PM 38.5725 -86.8528 267° West 411 473 40,000  Level Indianapolis Center
Wed 08:30:09 PM 38.5664 -86.9975 267° West 412 474 40,000  Level Indianapolis Center
Wed 08:31:10 PM 38.5581 -87.1711 267° West 413 475 40,000  Level Indianapolis Center
Wed 08:32:12 PM 38.5503 -87.3167 266° West 414 476 40,000  Level Indianapolis Center
Wed 08:33:13 PM 38.5428 -87.4628 266° West 415 478 40,000  Level Indianapolis Center
Wed 08:34:15 PM 38.5347 -87.6106 266° West 416 479 40,000  Level Indianapolis Center
Wed 08:35:16 PM 38.5269 -87.7578 266° West 417 480 40,000  Level Indianapolis Center
Wed 08:36:18 PM 38.5189 -87.9058 266° West 417 480 40,000  Level Indianapolis Center
Wed 08:36:53 PM 38.5131 -87.9964 265° West 419 482 40,000  Level Kansas City Center
Wed 08:37:55 PM 38.5042 -88.1433 266° West 416 479 40,000  Level Kansas City Center
Wed 08:38:57 PM 38.4964 -88.2917 266° West 417 480 40,000  Level Kansas City Center
Wed 08:39:58 PM 38.4856 -88.4683 266° West 417 480 40,000  Level Kansas City Center
Wed 08:41:00 PM 38.4767 -88.6161 266° West 418 481 40,000  Level Kansas City Center
Wed 08:42:02 PM 38.4669 -88.7689 265° West 418 481 40,000  Level Kansas City Center
Wed 08:43:03 PM 38.4581 -88.9150 266° West 416 479 40,000  Level Kansas City Center
Wed 08:44:05 PM 38.4486 -89.0614 265° West 416 479 40,000  Level Kansas City Center
Wed 08:45:07 PM 38.4381 -89.2175 265° West 411 473 40,000  Level Kansas City Center
Wed 08:46:08 PM 38.4281 -89.3650 265° West 416 479 40,000  Level Kansas City Center
Wed 08:47:10 PM 38.4181 -89.5111 265° West 415 478 40,000  Level Kansas City Center
Wed 08:48:11 PM 38.4067 -89.6692 265° West 415 478 40,000  Level Kansas City Center
Wed 08:49:13 PM 38.3967 -89.8047 265° West 415 478 40,000  Level Kansas City Center
Wed 08:50:15 PM 38.3844 -89.9647 264° West 417 480 40,000  Level Kansas City Center
Wed 08:51:16 PM 38.3731 -90.1228 265° West 416 479 40,000  Level Kansas City Center
Wed 08:52:18 PM 38.3617 -90.2694 264° West 416 479 40,000  Level Kansas City Center
Wed 08:53:19 PM 38.3508 -90.3958 264° West 418 481 40,000  Level Kansas City Center
Wed 08:54:21 PM 38.3400 -90.5450 265° West 419 482 40,000  Level Kansas City Center
Wed 08:55:22 PM 38.3253 -90.7228 264° West 419 482 40,000  Level Kansas City Center
Wed 08:56:24 PM 38.3133 -90.8714 264° West 421 484 40,000  Level Kansas City Center
Wed 08:57:25 PM 38.3014 -91.0200 264° West 422 486 40,000  Level Kansas City Center
Wed 08:58:27 PM 38.2897 -91.1681 264° West 420 483 40,000  Level Kansas City Center
Wed 08:59:30 PM 38.2769 -91.3167 264° West 417 480 40,000  Level Kansas City Center
Wed 09:00:31 PM 38.2661 -91.4600 265° West 415 478 40,000  Level Kansas City Center
Wed 09:01:33 PM 38.2506 -91.6061 262° West 415 478 40,000  Level Kansas City Center
Wed 09:02:34 PM 38.2381 -91.7836 265° West 416 479 40,000  Level Kansas City Center
Wed 09:03:36 PM 38.2244 -91.9314 263° West 418 481 40,000  Level Kansas City Center
Wed 09:04:37 PM 38.2111 -92.0772 263° West 418 481 40,000  Level Kansas City Center
Wed 09:05:39 PM 38.1986 -92.2225 264° West 416 479 40,000  Level Kansas City Center
Wed 09:06:40 PM 38.1833 -92.3761 263° West 424 488 40,000  Level Kansas City Center
Wed 09:07:41 PM 38.1575 -92.5214 257° West 423 487 40,000  Level Kansas City Center
Wed 09:08:43 PM 38.1092 -92.6581 246° West 426 490 40,000  Level Kansas City Center
Wed 09:09:44 PM 38.0525 -92.8094 245° Southwest 422 486 40,000  Level Kansas City Center
Wed 09:10:46 PM 38.0044 -92.9436 246° West 419 482 40,000  Level Kansas City Center
Wed 09:11:47 PM 37.9556 -93.0781 245° Southwest 420 483 40,000  Level Kansas City Center
Wed 09:12:49 PM 37.9089 -93.2128 246° West 419 482 40,000  Level Kansas City Center
Wed 09:13:50 PM 37.8517 -93.3422 241° Southwest 419 482 40,000  Level Kansas City Center
Wed 09:14:52 PM 37.7911 -93.4717 239° Southwest 425 489 40,000  Level Kansas City Center
Wed 09:15:53 PM 37.7328 -93.6042 241° Southwest 429 494 40,000  Level Kansas City Center
Wed 09:16:55 PM 37.6744 -93.7353 241° Southwest 429 494 40,000  Level Kansas City Center
Wed 09:17:56 PM 37.6031 -93.8925 240° Southwest 429 494 40,000  Level Kansas City Center
Wed 09:18:58 PM 37.5475 -94.0253 242° Southwest 428 493 40,000  Level Kansas City Center
Wed 09:19:59 PM 37.4978 -94.1489 243° Southwest 424 488 40,000  Level Kansas City Center
Wed 09:21:01 PM 37.4433 -94.2808 243° Southwest 424 488 40,000  Level Kansas City Center
Wed 09:22:02 PM 37.3900 -94.4117 243° Southwest 422 486 40,000  Level Kansas City Center
Wed 09:23:04 PM 37.3364 -94.5406 242° Southwest 418 481 40,000  Level Kansas City Center
Wed 09:24:05 PM 37.2931 -94.7036 252° West 411 473 40,000  Level Kansas City Center
Wed 09:25:07 PM 37.2756 -94.8467 261° West 412 474 40,000  Level Kansas City Center
Wed 09:26:09 PM 37.2661 -94.9872 265° West 408 470 40,000  Level Kansas City Center
Wed 09:27:10 PM 37.2664 -95.1261 270° West 401 461 40,000  Level Kansas City Center
Wed 09:28:12 PM 37.2644 -95.2672 269° West 402 463 40,000  Level Kansas City Center
Wed 09:29:13 PM 37.2625 -95.4089 269° West 405 466 40,000  Level Kansas City Center
Wed 09:30:15 PM 37.2600 -95.5550 269° West 412 474 40,000  Level Kansas City Center
Wed 09:31:16 PM 37.2572 -95.7253 269° West 408 470 40,000  Level Kansas City Center
Wed 09:32:18 PM 37.2536 -95.8672 268° West 407 468 40,000  Level Kansas City Center
Wed 09:33:19 PM 37.2508 -96.0081 269° West 405 466 40,000  Level Kansas City Center
Wed 09:34:21 PM 37.2478 -96.1489 268° West 405 466 40,000  Level Kansas City Center
Wed 09:35:22 PM 37.2453 -96.2892 269° West 403 464 40,000  Level Kansas City Center
Wed 09:36:24 PM 37.2406 -96.4311 268° West 405 466 40,000  Level Kansas City Center
Wed 09:37:25 PM 37.2372 -96.5772 268° West 405 466 40,000  Level Kansas City Center
Wed 09:38:27 PM 37.2444 -96.7183 274° West 407 468 40,000  Level Kansas City Center
Wed 09:39:28 PM 37.2756 -96.8533 286° West 401 461 40,000  Level Kansas City Center
Wed 09:40:30 PM 37.3050 -96.9903 285° West 404 465 40,000  Level Kansas City Center
Wed 09:41:31 PM 37.3358 -97.1247 286° West 402 463 40,000  Level Kansas City Center
Wed 09:42:33 PM 37.3742 -97.2856 287° West 399 459 40,000  Level Kansas City Center
Wed 09:43:34 PM 37.3889 -97.4231 278° West 397 457 40,000  Level Kansas City Center
Wed 09:44:36 PM 37.3778 -97.5583 264° West 388 447 40,000  Level Kansas City Center
Wed 09:45:37 PM 37.3664 -97.6964 264° West 393 452 40,000  Level Kansas City Center
Wed 09:46:39 PM 37.3536 -97.8333 263° West 394 453 40,000  Level Kansas City Center
Wed 09:47:40 PM 37.3531 -97.9686 270° West 387 445 40,000  Level Kansas City Center
Wed 09:48:42 PM 37.3594 -98.1075 273° West 393 452 40,000  Level Kansas City Center
Wed 09:49:43 PM 37.3664 -98.2475 274° West 397 457 40,000  Level Kansas City Center
Wed 09:50:45 PM 37.3683 -98.3850 271° West 395 455 40,000  Level Kansas City Center
Wed 09:51:46 PM 37.3667 -98.5225 269° West 392 451 40,000  Level Kansas City Center
Wed 09:52:48 PM 37.3664 -98.6619 270° West 395 455 40,000  Level Kansas City Center
Wed 09:53:49 PM 37.3678 -98.8306 271° West 399 459 40,000  Level Kansas City Center
Wed 09:54:51 PM 37.3653 -98.9714 269° West 400 460 40,000  Level Kansas City Center
Wed 09:55:52 PM 37.3525 -99.1114 263° West 405 466 40,000  Level Kansas City Center
Wed 09:56:53 PM 37.3408 -99.2503 264° West 401 461 40,000  Level Kansas City Center
Wed 09:57:55 PM 37.3172 -99.3853 258° West 396 456 40,000  Level Kansas City Center
Wed 09:58:56 PM 37.2847 -99.5153 253° West 392 451 40,000  Level Kansas City Center
Wed 09:59:58 PM 37.2492 -99.6631 253° West 394 453 40,000  Level Kansas City Center
Wed 10:00:59 PM 37.2200 -99.7875 254° West 391 450 40,000  Level Kansas City Center
Wed 10:02:00 PM 37.1853 -99.9344 254° West 392 451 40,000  Level Kansas City Center
Wed 10:03:02 PM 37.1547 -100.0592 253° West 391 450 40,000  Level Kansas City Center
Wed 10:04:03 PM 37.1264 -100.1836 254° West 389 448 40,000  Level Kansas City Center
Wed 10:05:04 PM 37.0914 -100.3283 253° West 388 447 40,000  Level Kansas City Center
Wed 10:06:06 PM 37.0606 -100.4547 253° West 392 451 40,000  Level Kansas City Center
Wed 10:07:07 PM 37.0294 -100.5828 253° West 397 457 40,000  Level Kansas City Center
Wed 10:08:08 PM 36.9911 -100.7347 253° West 405 466 40,000 -293 Level Kansas City Center
Wed 10:09:10 PM 36.9606 -100.8597 253° West 398 458 39,400 -878 Descending Kansas City Center
Wed 10:10:11 PM 36.9253 -101.0014 253° West 385 443 38,200 -1,082 Descending Kansas City Center
Wed 10:11:12 PM 36.8956 -101.1200 253° West 377 434 37,200 -927 Descending Kansas City Center
Wed 10:12:14 PM 36.8647 -101.2406 252° West 378 435 36,300 -927 Descending Kansas City Center
Wed 10:13:15 PM 36.8292 -101.3819 253° West 380 437 35,300 -984 Descending Kansas City Center
Wed 10:14:16 PM 36.7978 -101.5039 252° West 383 441 34,300 -1,024 Descending Kansas City Center
Wed 10:15:18 PM 36.7606 -101.6492 252° West 390 449 33,200 -1,024 Descending Kansas City Center
Wed 10:16:19 PM 36.7294 -101.7714 252° West 389 448 32,200 -590 Descending Kansas City Center
Wed 10:17:20 PM 36.6989 -101.8908 252° West 382 440 32,000 -98 Descending Kansas City Center
Wed 10:18:21 PM 36.6633 -102.0275 252° West 375 432 32,000  Level Kansas City Center
Wed 10:19:23 PM 36.6325 -102.1453 252° West 373 429 32,000  Level Kansas City Center
Wed 10:20:24 PM 36.5969 -102.2794 252° West 377 434 32,000  Level Kansas City Center
Wed 10:21:25 PM 36.5650 -102.4033 252° West 376 433 32,000  Level Kansas City Center
Wed 10:22:26 PM 36.5322 -102.5258 252° West 376 433 32,000  Level Kansas City Center
Wed 10:23:38 PM 36.4933 -102.6750 252° West 377 434 32,000  Level Albuquerque Center
Wed 10:24:39 PM 36.4608 -102.7961 252° West 374 430 32,000  Level Albuquerque Center
Wed 10:25:40 PM 36.4244 -102.9306 251° West 372 428 32,000  Level Albuquerque Center
Wed 10:26:41 PM 36.3908 -103.0522 251° West 371 427 32,000  Level Albuquerque Center
Wed 10:27:43 PM 36.3589 -103.1758 252° West 373 429 32,000  Level Albuquerque Center
Wed 10:28:44 PM 36.3253 -103.2969 251° West 371 427 32,000  Level Albuquerque Center
Wed 10:29:45 PM 36.2922 -103.4169 251° West 367 422 32,000  Level Albuquerque Center
Wed 10:30:46 PM 36.2597 -103.5392 252° West 369 425 32,000  Level Albuquerque Center
Wed 10:31:47 PM 36.2258 -103.6592 251° West 368 423 32,000  Level Albuquerque Center
Wed 10:32:49 PM 36.1928 -103.7786 251° West 367 422 32,000  Level Albuquerque Center
Wed 10:33:50 PM 36.1589 -103.8989 251° West 367 422 32,000  Level Albuquerque Center
Wed 10:34:51 PM 36.1264 -104.0197 252° West 369 425 32,000  Level Albuquerque Center
Wed 10:35:52 PM 36.0914 -104.1417 250° West 371 427 32,000  Level Albuquerque Center
Wed 10:36:54 PM 36.0578 -104.2617 251° West 371 427 32,000  Level Albuquerque Center
Wed 10:37:55 PM 36.0233 -104.3792 250° West 364 419 32,000  Level Albuquerque Center
Wed 10:38:57 PM 35.9906 -104.4969 251° West 362 417 32,000  Level Albuquerque Center
Wed 10:39:58 PM 35.9511 -104.6333 250° West 360 414 32,000  Level Albuquerque Center
Wed 10:40:59 PM 35.9172 -104.7508 250° West 362 417 32,000  Level Albuquerque Center
Wed 10:42:00 PM 35.8836 -104.8675 250° West 360 414 32,000  Level Albuquerque Center
Wed 10:43:01 PM 35.8506 -104.9842 251° West 360 414 32,000  Level Albuquerque Center
Wed 10:44:03 PM 35.8150 -105.1014 250° West 362 417 32,000  Level Albuquerque Center
Wed 10:45:04 PM 35.7808 -105.2186 250° West 362 417 32,000  Level Albuquerque Center
Wed 10:46:05 PM 35.7467 -105.3369 250° West 364 419 32,000  Level Albuquerque Center
Wed 10:47:07 PM 35.7122 -105.4542 250° West 362 417 32,000  Level Albuquerque Center
Wed 10:48:08 PM 35.6919 -105.5758 258° West 363 418 32,000  Level Albuquerque Center
Wed 10:49:09 PM 35.6814 -105.6986 264° West 362 417 32,000 -443 Level Albuquerque Center
Wed 10:50:10 PM 35.6694 -105.8208 263° West 361 415 31,100 -1,463 Descending Albuquerque Center
Wed 10:51:12 PM 35.6586 -105.9372 263° West 350 403 29,000 -2,049 Descending Albuquerque Center
Wed 10:52:13 PM 35.6478 -106.0511 263° West 340 391 26,900 -2,262 Descending Albuquerque Center
Wed 10:53:14 PM 35.6342 -106.1836 263° West 328 377 24,400 -2,146 Descending Albuquerque Center
Wed 10:54:16 PM 35.6244 -106.2908 264° West 322 371 22,500 -1,805 Descending Albuquerque Center
Wed 10:55:17 PM 35.6111 -106.3933 261° West 308 354 20,700 -1,967 Descending Albuquerque Center
Wed 10:56:18 PM 35.6028 -106.4983 264° West 308 354 18,500 -2,049 Descending Albuquerque Center
Wed 10:57:20 PM 35.5686 -106.5894 245° Southwest 319 367 16,500 -1,730 Descending Albuquerque Center
Wed 10:58:09 PM 35.4958 -106.6286 204° Southwest 309 356 15,300 -1,513 Descending Albuquerque Center
Wed 10:59:15 PM 35.4161 -106.6728 204° Southwest 298 343 13,600 -1,512 Descending Albuquerque Center
Wed 11:00:16 PM 35.3419 -106.7128 204° Southwest 284 327 12,100 -1,525 Descending Albuquerque Center
Wed 11:01:17 PM 35.2678 -106.7525 204° Southwest 270 311 10,500 -1,246 Descending Albuquerque Center
Wed 11:02:26 PM 35.2083 -106.7900 207° Southwest 270 311 9,400 -744 Descending Albuquerque Center
Wed 11:03:18 PM 35.1444 -106.8283 206° Southwest 231 266 9,000 -283 Descending Albuquerque Center
Wed 11:04:12 PM 35.0997 -106.8164 168° South 226 260 8,900 -338 Descending Albuquerque Center
Wed 11:04:29 PM 35.0972 -106.7950 98° East 246 283 8,600 -982 Descending Albuquerque Center
Wed 11:05:07 PM 35.0850 -106.7553 111° Southeast 212 244 8,000 -1,279 Descending Albuquerque Center
Wed 11:05:30 PM 35.0675 -106.7353 137° Southeast 224 258 7,300 -984 Descending Albuquerque Center
Wed 11:06:08 PM 35.0444 -106.7061 134° Southeast 179 206 7,000 -984 Descending Albuquerque Center
Wed 11:06:31 PM 35.0444 -106.6897 90° East 183 211 6,300 -1,000 Descending Albuquerque Center
Wed 11:07:14 PM 35.0442 -106.6569 91° East 118 136 5,900 -581 Descending Albuquerque Center
Wed 11:07:33 PM 35.0444 -106.6442 88° East 149 171 5,700 -525 Descending Albuquerque Center
Wed 11:08:34 PM 35.0444 -106.6050 90° East 141 162 5,200 -492 Descending Albuquerque Center
Wed 11:10:00 PM 35.0333 -106.6000 90° East  Level FlightAware Approximate

Login

Don't have an account? Register now (free) for customized features, flight alerts, and more!